Time;durP1;ratioP1;P1;durP2;ratioP2;P2;SDS_P1;SDS_P2;PMS_P1;PMS_P2;Temp;Humidity;BMP_temperature;BMP_pressure;BME280_temperature;BME280_humidity;BME280_pressure;Samples;Min_cycle;Max_cycle;Signal;HPM_P1;HPM_P2
2021/03/01 00:02:20;;;;;;;22.43;11.30;;;2.00;99.90;;;;;;5066852;28;20384;-49
2021/03/01 00:04:46;;;;;;;19.40;10.63;;;1.90;99.90;;;;;;5069697;28;20423;-48
2021/03/01 00:07:11;;;;;;;20.33;10.68;;;1.90;99.90;;;;;;5068210;28;21075;-51
2021/03/01 00:09:37;;;;;;;22.27;11.52;;;1.80;99.90;;;;;;5068498;28;20603;-47
2021/03/01 00:12:04;;;;;;;23.37;11.70;;;1.70;99.90;;;;;;5068495;28;20894;-48
2021/03/01 00:14:29;;;;;;;24.70;12.32;;;1.70;99.90;;;;;;5064377;28;20388;-48
2021/03/01 00:16:55;;;;;;;24.60;11.10;;;1.70;99.90;;;;;;5068176;28;20468;-54
2021/03/01 00:19:21;;;;;;;23.50;11.90;;;1.80;99.90;;;;;;5066558;28;20383;-47
2021/03/01 00:21:46;;;;;;;23.20;11.50;;;1.70;99.90;;;;;;5067138;28;20395;-50
2021/03/01 00:24:12;;;;;;;24.17;12.70;;;1.70;99.90;;;;;;5068331;28;21193;-47
2021/03/01 00:26:38;;;;;;;24.60;12.55;;;1.60;99.90;;;;;;5063404;28;20411;-47
2021/03/01 00:29:03;;;;;;;23.55;11.98;;;1.60;99.90;;;;;;5068789;28;20387;-49
2021/03/01 00:31:29;;;;;;;24.07;12.40;;;1.60;99.90;;;;;;5067825;28;20521;-48
2021/03/01 00:33:55;;;;;;;25.25;12.60;;;1.70;99.90;;;;;;5071616;28;21384;-53
2021/03/01 00:36:20;;;;;;;24.23;11.75;;;1.60;99.90;;;;;;5095074;28;20389;-48
2021/03/01 00:38:46;;;;;;;21.13;11.70;;;1.60;99.90;;;;;;5094904;28;20435;-48
2021/03/01 00:41:12;;;;;;;25.30;12.68;;;1.60;99.90;;;;;;5091502;28;20454;-49
2021/03/01 00:43:37;;;;;;;22.20;12.13;;;1.50;99.90;;;;;;5078521;28;21116;-48
2021/03/01 00:46:03;;;;;;;22.00;11.90;;;1.50;99.90;;;;;;5089933;28;20402;-48
2021/03/01 00:48:28;;;;;;;25.50;12.85;;;1.50;99.90;;;;;;5096556;28;20410;-49
2021/03/01 00:50:54;;;;;;;26.17;12.60;;;1.50;99.90;;;;;;5090628;28;20812;-54
2021/03/01 00:53:24;;;;;;;22.70;12.20;;;1.50;99.90;;;;;;5095886;28;20414;-47
2021/03/01 00:55:50;;;;;;;22.30;12.05;;;2.70;99.90;;;;;;5090284;28;20412;-47
2021/03/01 00:58:17;;;;;;;26.50;13.13;;;1.40;99.90;;;;;;5095755;28;20377;-49
2021/03/01 01:00:44;;;;;;;22.85;12.40;;;1.40;99.90;;;;;;5091175;28;20887;-49
2021/03/01 01:03:10;;;;;;;22.70;12.27;;;3.90;99.90;;;;;;5095711;28;20465;-48
2021/03/01 01:05:35;;;;;;;21.63;12.33;;;1.40;99.90;;;;;;5091029;28;20527;-48
2021/03/01 01:08:01;;;;;;;23.25;12.13;;;1.40;99.90;;;;;;5095882;28;20434;-48
2021/03/01 01:10:27;;;;;;;24.50;12.80;;;1.40;99.90;;;;;;5096345;28;20376;-49
2021/03/01 01:12:53;;;;;;;26.00;12.20;;;1.40;99.90;;;;;;5090779;28;20405;-48
2021/03/01 01:15:19;;;;;;;24.85;12.00;;;1.40;99.90;;;;;;5095446;28;20397;-49
2021/03/01 01:17:44;;;;;;;22.60;11.83;;;1.40;99.90;;;;;;5091091;28;20497;-47
2021/03/01 01:20:12;;;;;;;22.63;11.80;;;1.40;99.90;;;;;;5095400;28;20874;-47
2021/03/01 01:22:38;;;;;;;21.92;11.90;;;1.30;99.90;;;;;;5090690;28;20405;-47
2021/03/01 01:25:06;;;;;;;23.23;11.88;;;1.30;99.90;;;;;;5095192;28;20890;-49
2021/03/01 01:27:32;;;;;;;26.60;12.35;;;1.40;99.90;;;;;;5091068;28;20919;-48
2021/03/01 01:29:57;;;;;;;27.08;12.70;;;1.30;99.90;;;;;;5095797;28;20444;-53
2021/03/01 01:32:23;;;;;;;24.37;12.33;;;1.30;99.90;;;;;;5096389;28;20398;-47
2021/03/01 01:34:48;;;;;;;24.30;12.60;;;1.30;99.90;;;;;;5096019;28;20574;-47
2021/03/01 01:37:14;;;;;;;22.73;12.23;;;1.30;99.90;;;;;;5095294;28;20895;-49
2021/03/01 01:39:40;;;;;;;24.30;12.57;;;1.40;99.90;;;;;;5095760;28;20392;-48
2021/03/01 01:42:05;;;;;;;24.30;12.48;;;1.30;99.90;;;;;;5094822;28;20386;-48
2021/03/01 01:44:31;;;;;;;25.98;12.90;;;1.40;99.90;;;;;;5096608;28;20430;-49
2021/03/01 01:46:57;;;;;;;27.23;13.70;;;1.40;99.90;;;;;;5092882;28;20848;-54
2021/03/01 01:49:22;;;;;;;25.77;13.33;;;1.30;99.90;;;;;;5092734;28;20916;-48
2021/03/01 01:51:48;;;;;;;26.10;12.82;;;1.30;99.90;;;;;;5093041;28;20372;-47
2021/03/01 01:54:14;;;;;;;26.90;12.60;;;1.30;99.90;;;;;;5091489;28;20909;-47
2021/03/01 01:56:40;;;;;;;23.48;12.07;;;1.30;99.90;;;;;;5092803;28;20473;-49
2021/03/01 01:59:06;;;;;;;23.55;12.57;;;1.40;99.90;;;;;;5091782;28;20717;-49
2021/03/01 02:01:32;;;;;;;28.02;13.05;;;1.30;99.90;;;;;;5092696;28;20377;-47
2021/03/01 02:04:30;;;;;;;23.75;13.07;;;1.20;99.90;;;;;;5092122;28;20868;-52
2021/03/01 02:07:03;;;;;;;25.48;13.70;;;1.30;99.90;;;;;;5092728;28;20413;-53
2021/03/01 02:09:50;;;;;;;26.05;13.38;;;1.40;99.90;;;;;;5092482;28;20378;-47
2021/03/01 02:12:29;;;;;;;26.92;14.32;;;1.40;99.90;;;;;;5091474;28;20397;-47
2021/03/01 02:15:21;;;;;;;23.00;12.23;;;3.80;99.90;;;;;;5092590;28;20457;-48
2021/03/01 02:17:47;;;;;;;25.73;12.88;;;1.50;99.90;;;;;;5092712;28;20406;-47
2021/03/01 02:20:12;;;;;;;27.48;13.00;;;1.40;99.90;;;;;;5091019;28;20428;-47
2021/03/01 02:22:40;;;;;;;26.70;12.77;;;1.40;99.90;;;;;;5092395;28;20378;-47
2021/03/01 02:25:08;;;;;;;28.48;14.02;;;1.30;99.90;;;;;;5091655;28;20378;-47
2021/03/01 02:27:45;;;;;;;26.00;12.50;;;1.20;99.90;;;;;;5092266;28;20378;-47
2021/03/01 02:30:46;;;;;;;23.50;12.00;;;1.20;99.90;;;;;;5091608;28;20451;-47
2021/03/01 02:33:20;;;;;;;24.00;12.40;;;1.00;99.90;;;;;;5035416;28;20752;-50
2021/03/01 02:35:59;;;;;;;21.57;12.10;;;0.90;99.90;;;;;;5092384;28;20443;-49
2021/03/01 02:38:28;;;;;;;27.08;13.02;;;0.90;99.90;;;;;;5091920;28;20451;-48
2021/03/01 02:40:57;;;;;;;28.17;13.85;;;0.80;99.90;;;;;;5091924;28;20382;-47
2021/03/01 02:43:25;;;;;;;26.05;13.73;;;0.70;99.90;;;;;;5091210;28;20428;-48
2021/03/01 02:45:52;;;;;;;25.08;14.07;;;0.70;99.90;;;;;;5091673;28;20786;-49
2021/03/01 02:48:19;;;;;;;28.33;14.33;;;0.70;99.90;;;;;;5091079;28;20854;-48
2021/03/01 02:50:46;;;;;;;26.83;13.90;;;0.70;99.90;;;;;;5091909;28;20838;-47
2021/03/01 02:53:14;;;;;;;26.45;13.73;;;0.70;99.90;;;;;;5091044;28;20459;-47
2021/03/01 02:55:43;;;;;;;25.80;13.63;;;0.70;99.90;;;;;;5091674;28;20453;-48
2021/03/01 02:58:14;;;;;;;24.47;13.00;;;0.70;99.90;;;;;;5089926;28;20378;-50
2021/03/01 03:00:40;;;;;;;26.92;13.68;;;0.70;99.90;;;;;;5092023;28;20378;-48
2021/03/01 03:03:09;;;;;;;23.87;13.20;;;0.60;99.90;;;;;;5090776;28;20386;-47
2021/03/01 03:05:36;;;;;;;25.30;13.40;;;0.70;99.90;;;;;;5091425;28;20366;-47
2021/03/01 03:08:02;;;;;;;25.67;13.43;;;0.60;99.90;;;;;;5090582;28;20381;-53
2021/03/01 03:10:29;;;;;;;24.77;13.10;;;0.60;99.90;;;;;;5091348;28;20461;-48
2021/03/01 03:12:56;;;;;;;28.40;14.02;;;0.60;99.90;;;;;;5091116;28;20460;-47
2021/03/01 03:15:25;;;;;;;24.95;12.85;;;0.50;99.90;;;;;;5090431;28;20385;-47
2021/03/01 03:17:51;;;;;;;24.77;13.70;;;0.50;99.90;;;;;;5091303;28;20413;-47
2021/03/01 03:20:17;;;;;;;25.07;13.80;;;0.50;99.90;;;;;;5090355;28;20406;-49
2021/03/01 03:22:42;;;;;;;27.83;13.57;;;0.50;99.90;;;;;;5091169;28;20378;-47
2021/03/01 03:25:09;;;;;;;28.53;13.47;;;0.40;99.90;;;;;;5089787;28;20746;-49
2021/03/01 03:27:35;;;;;;;24.15;13.27;;;0.40;99.90;;;;;;5086233;28;20411;-48
2021/03/01 03:30:08;;;;;;;20.87;11.50;;;0.40;99.90;;;;;;5089363;28;20476;-54
2021/03/01 03:32:34;;;;;;;25.60;13.45;;;0.30;99.90;;;;;;5091007;28;20518;-49
2021/03/01 03:35:00;;;;;;;24.80;13.23;;;0.30;99.90;;;;;;5084731;28;20897;-53
2021/03/01 03:37:34;;;;;;;24.90;11.80;;;0.30;99.90;;;;;;5090048;28;20461;-48
2021/03/01 03:40:02;;;;;;;26.40;12.35;;;0.30;99.90;;;;;;5084985;28;20886;-54
2021/03/01 03:42:30;;;;;;;25.13;12.50;;;0.30;99.90;;;;;;5090791;28;20435;-47
2021/03/01 03:44:57;;;;;;;26.67;13.67;;;0.30;99.90;;;;;;5084735;28;20390;-48
2021/03/01 03:47:24;;;;;;;31.02;14.38;;;0.50;99.90;;;;;;5068057;28;20879;-48
2021/03/01 03:49:51;;;;;;;26.13;13.60;;;0.60;99.90;;;;;;5090055;28;20840;-50
2021/03/01 03:52:21;;;;;;;27.95;12.98;;;0.70;99.90;;;;;;5084028;28;20865;-48
2021/03/01 03:54:50;;;;;;;25.17;13.50;;;0.60;99.90;;;;;;5084690;28;20753;-48
2021/03/01 03:57:23;;;;;;;26.00;14.20;;;0.60;99.90;;;;;;5089305;28;20887;-48
2021/03/01 03:59:52;;;;;;;27.02;13.80;;;0.60;99.90;;;;;;5090473;28;20382;-48
2021/03/01 04:02:21;;;;;;;26.23;13.27;;;0.60;99.90;;;;;;5089385;28;20378;-48
2021/03/01 04:04:48;;;;;;;26.33;12.90;;;0.50;99.90;;;;;;5090579;28;20389;-48
2021/03/01 04:07:17;;;;;;;24.50;12.90;;;0.40;99.90;;;;;;5089606;28;20885;-48
2021/03/01 04:09:45;;;;;;;27.50;13.97;;;0.30;99.90;;;;;;5089560;28;20468;-47
2021/03/01 04:12:13;;;;;;;25.23;12.80;;;0.30;99.90;;;;;;5089523;28;20480;-47
2021/03/01 04:14:40;;;;;;;23.90;13.10;;;0.30;99.90;;;;;;5090483;28;20394;-49
2021/03/01 04:17:12;;;;;;;26.77;13.55;;;0.20;99.90;;;;;;5089422;28;20389;-48
2021/03/01 04:19:39;;;;;;;27.13;14.20;;;0.30;99.90;;;;;;5090336;28;20378;-47
2021/03/01 04:22:05;;;;;;;27.97;13.77;;;0.20;99.90;;;;;;5089121;28;20374;-47
2021/03/01 04:24:33;;;;;;;29.25;13.48;;;0.10;99.90;;;;;;5090053;28;20438;-47
2021/03/01 04:27:01;;;;;;;25.67;12.52;;;0.10;99.90;;;;;;5090085;28;20408;-49
2021/03/01 04:29:28;;;;;;;26.48;13.30;;;0.10;99.90;;;;;;5089795;28;20449;-48
2021/03/01 04:31:55;;;;;;;27.15;13.70;;;0.10;99.90;;;;;;5089781;28;20390;-47
2021/03/01 04:34:21;;;;;;;23.38;12.45;;;0.10;99.90;;;;;;5089042;28;20448;-47
2021/03/01 04:36:47;;;;;;;24.38;12.77;;;0.00;99.90;;;;;;5089646;28;20464;-48
2021/03/01 04:39:13;;;;;;;25.75;12.95;;;0.00;99.90;;;;;;5088704;28;20385;-48
2021/03/01 04:41:41;;;;;;;26.27;12.97;;;0.00;99.90;;;;;;5089578;28;20747;-48
2021/03/01 04:44:10;;;;;;;24.10;12.63;;;0.10;99.90;;;;;;5089050;28;20901;-47
2021/03/01 04:46:36;;;;;;;23.87;12.27;;;0.00;99.90;;;;;;5089646;28;20370;-49
2021/03/01 04:49:03;;;;;;;25.98;12.18;;;0.00;99.90;;;;;;5089560;28;20462;-54
2021/03/01 04:51:31;;;;;;;25.57;13.70;;;0.00;99.90;;;;;;5089903;28;20385;-48
2021/03/01 04:53:59;;;;;;;24.08;12.32;;;0.00;99.90;;;;;;5089688;28;20729;-49
2021/03/01 04:56:25;;;;;;;23.25;13.40;;;-0.10;99.90;;;;;;5088668;28;20386;-47
2021/03/01 04:58:51;;;;;;;27.73;14.30;;;-0.10;99.90;;;;;;5089880;28;20370;-50
2021/03/01 05:01:17;;;;;;;24.88;13.35;;;-0.10;99.90;;;;;;5088703;28;20572;-47
2021/03/01 05:03:44;;;;;;;28.15;14.00;;;0.00;99.90;;;;;;5089449;28;20447;-48
2021/03/01 05:06:11;;;;;;;25.67;12.77;;;0.00;99.90;;;;;;5088706;28;20386;-50
2021/03/01 05:08:39;;;;;;;26.30;12.80;;;0.10;99.90;;;;;;5089402;28;21332;-48
2021/03/01 05:11:06;;;;;;;25.60;13.32;;;0.10;99.90;;;;;;5086099;28;20413;-53
2021/03/01 05:13:33;;;;;;;28.35;14.07;;;0.10;99.90;;;;;;5089072;28;20394;-49
2021/03/01 05:15:59;;;;;;;27.77;13.40;;;0.20;99.90;;;;;;5088910;28;20870;-47
2021/03/01 05:18:25;;;;;;;24.10;13.50;;;0.20;99.90;;;;;;5088602;28;20371;-47
2021/03/01 05:20:50;;;;;;;26.17;13.70;;;0.20;99.90;;;;;;5089773;28;20435;-47
2021/03/01 05:23:16;;;;;;;25.08;12.95;;;0.30;99.90;;;;;;5091740;28;20385;-47
2021/03/01 05:25:42;;;;;;;26.65;13.32;;;0.20;99.90;;;;;;5093257;28;20374;-47
2021/03/01 05:28:07;;;;;;;26.80;12.77;;;0.20;99.90;;;;;;5092685;28;20431;-50
2021/03/01 05:30:33;;;;;;;27.55;13.57;;;0.20;99.90;;;;;;5093286;28;20389;-47
2021/03/01 05:32:59;;;;;;;26.83;13.57;;;0.20;99.90;;;;;;5093081;28;20402;-49
2021/03/01 05:35:25;;;;;;;23.77;13.23;;;0.30;99.90;;;;;;5092604;28;20916;-47
2021/03/01 05:37:50;;;;;;;26.20;13.32;;;0.20;99.90;;;;;;5092679;28;20383;-48
2021/03/01 05:40:16;;;;;;;26.00;14.50;;;0.20;99.90;;;;;;5091170;28;20390;-49
2021/03/01 05:42:43;;;;;;;26.90;14.25;;;0.20;99.90;;;;;;5090741;28;20455;-47
2021/03/01 05:45:10;;;;;;;28.05;12.93;;;0.20;99.90;;;;;;5089798;28;20401;-47
2021/03/01 05:47:37;;;;;;;27.45;13.07;;;0.10;99.90;;;;;;5091959;28;20851;-47
2021/03/01 05:50:10;;;;;;;25.90;12.70;;;0.10;99.90;;;;;;5092616;28;20382;-53
2021/03/01 05:52:39;;;;;;;26.38;13.82;;;2.80;99.90;;;;;;5092962;28;20409;-47
2021/03/01 05:55:06;;;;;;;26.85;13.20;;;0.00;99.90;;;;;;5091803;28;20390;-53
2021/03/01 05:57:33;;;;;;;26.48;13.18;;;0.10;99.90;;;;;;5092404;28;20397;-48
2021/03/01 06:00:00;;;;;;;25.23;13.60;;;0.00;99.90;;;;;;5076188;28;20411;-47
2021/03/01 06:02:25;;;;;;;24.63;13.70;;;0.00;99.90;;;;;;5071604;28;20412;-48
2021/03/01 06:04:52;;;;;;;24.77;12.35;;;0.00;99.90;;;;;;5081270;28;20418;-47
2021/03/01 06:07:18;;;;;;;22.40;12.70;;;0.00;99.90;;;;;;5090831;28;20388;-47
2021/03/01 06:09:44;;;;;;;27.13;12.90;;;-0.10;99.90;;;;;;5092005;28;20456;-48
2021/03/01 06:12:10;;;;;;;29.00;13.20;;;-0.10;99.90;;;;;;5079281;28;20398;-47
2021/03/01 06:14:35;;;;;;;25.90;13.67;;;0.00;99.90;;;;;;5083720;28;20414;-47
2021/03/01 06:17:19;;;;;;;25.73;13.10;;;0.00;99.90;;;;;;5089211;28;20855;-47
2021/03/01 06:19:57;;;;;;;24.88;12.88;;;0.00;99.90;;;;;;5085613;28;20879;-47
2021/03/01 06:22:25;;;;;;;26.10;13.48;;;0.10;99.90;;;;;;5090767;28;20553;-47
2021/03/01 06:25:01;;;;;;;26.80;13.23;;;0.10;99.90;;;;;;5088998;28;20433;-48
2021/03/01 06:27:26;;;;;;;24.60;13.00;;;0.20;99.90;;;;;;5088515;28;20417;-50
2021/03/01 06:30:07;;;;;;;27.55;15.32;;;1.80;99.90;;;;;;5088034;28;20394;-48
2021/03/01 06:32:33;;;;;;;24.42;13.00;;;0.50;99.90;;;;;;5087480;28;20382;-49
2021/03/01 06:34:58;;;;;;;24.30;12.30;;;1.40;99.90;;;;;;5090812;28;20406;-47
2021/03/01 06:37:24;;;;;;;22.30;11.50;;;2.50;99.90;;;;;;5089419;28;20394;-47
2021/03/01 06:39:52;;;;;;;20.45;11.00;;;3.30;99.90;;;;;;5091319;28;20461;-48
2021/03/01 06:42:19;;;;;;;20.45;10.45;;;4.30;99.90;;;;;;5089231;28;20390;-47
2021/03/01 06:44:47;;;;;;;20.08;10.93;;;7.70;99.90;;;;;;5091679;28;20378;-49
2021/03/01 06:47:13;;;;;;;20.05;10.73;;;7.70;99.90;;;;;;5090835;28;20378;-47
2021/03/01 06:49:41;;;;;;;21.02;11.18;;;7.90;99.90;;;;;;5089687;28;20481;-48
2021/03/01 06:52:08;;;;;;;20.67;11.00;;;8.00;99.90;;;;;;5087263;28;20414;-54
2021/03/01 06:54:34;;;;;;;20.67;11.52;;;7.40;99.90;;;;;;5084203;28;20417;-48
2021/03/01 06:56:59;;;;;;;18.00;10.60;;;8.20;99.90;;;;;;5085410;28;20406;-48
2021/03/01 06:59:25;;;;;;;20.70;10.77;;;8.30;99.90;;;;;;5090462;28;20377;-48
2021/03/01 07:01:56;;;;;;;19.00;11.20;;;9.00;99.90;;;;;;5079819;28;20399;-48
2021/03/01 07:04:27;;;;;;;18.50;11.00;;;10.20;98.50;;;;;;5080180;28;20470;-48
2021/03/01 07:06:54;;;;;;;18.85;10.80;;;11.50;95.20;;;;;;5090560;28;20401;-49
2021/03/01 07:09:26;;;;;;;16.63;10.32;;;12.60;90.60;;;;;;5087763;28;20398;-48
2021/03/01 07:11:51;;;;;;;19.05;11.38;;;13.60;81.30;;;;;;5090226;28;20385;-47
2021/03/01 07:14:21;;;;;;;15.52;10.32;;;13.70;78.20;;;;;;5084724;28;20413;-49
2021/03/01 07:16:50;;;;;;;15.55;10.52;;;14.50;73.00;;;;;;5070980;28;20376;-47
2021/03/01 07:19:17;;;;;;;16.60;10.77;;;14.60;68.40;;;;;;5082628;28;20402;-48
2021/03/01 07:21:48;;;;;;;14.88;10.25;;;14.90;66.80;;;;;;5090487;28;20423;-47
2021/03/01 07:24:19;;;;;;;14.88;10.40;;;15.60;63.90;;;;;;5079843;28;20400;-49
2021/03/01 07:26:45;;;;;;;17.30;11.70;;;15.70;62.30;;;;;;5087667;28;20863;-48
2021/03/01 07:29:13;;;;;;;16.95;10.60;;;16.30;59.60;;;;;;5085512;28;20406;-48
2021/03/01 07:31:48;;;;;;;17.17;11.60;;;16.30;58.10;;;;;;5088906;28;20484;-48
2021/03/01 07:34:16;;;;;;;19.65;11.60;;;15.50;58.10;;;;;;5085293;28;20509;-48
2021/03/01 07:36:41;;;;;;;17.42;10.98;;;15.00;61.70;;;;;;5090003;28;20418;-48
2021/03/01 07:39:10;;;;;;;17.00;11.02;;;15.00;60.80;;;;;;5086177;28;20483;-49
2021/03/01 07:41:37;;;;;;;15.40;11.27;;;14.80;62.20;;;;;;5088900;28;20394;-49
2021/03/01 07:44:05;;;;;;;17.92;10.65;;;15.30;61.70;;;;;;5080575;28;20402;-51
2021/03/01 07:46:34;;;;;;;17.60;10.77;;;15.10;61.50;;;;;;5083394;28;20403;-49
2021/03/01 07:48:59;;;;;;;18.33;10.70;;;16.00;60.10;;;;;;5089669;28;20438;-50
2021/03/01 07:51:46;;;;;;;14.68;10.55;;;16.80;57.60;;;;;;5088643;28;20503;-50
2021/03/01 07:54:53;;;;;;;17.05;10.10;;;17.20;56.70;;;;;;5084863;28;20883;-49
2021/03/01 07:57:20;;;;;;;17.83;10.77;;;17.00;56.70;;;;;;5088181;28;20443;-49
2021/03/01 07:59:46;;;;;;;19.90;11.25;;;16.60;56.70;;;;;;5088852;28;20485;-49
2021/03/01 08:02:16;;;;;;;17.75;10.52;;;16.60;56.80;;;;;;5086939;28;21094;-49
2021/03/01 08:04:42;;;;;;;18.80;10.55;;;17.70;55.20;;;;;;5089351;28;20469;-49
2021/03/01 08:07:08;;;;;;;20.45;11.10;;;17.70;54.10;;;;;;5068955;28;20394;-55
2021/03/01 08:09:40;;;;;;;17.10;11.10;;;18.20;52.50;;;;;;5089430;28;20458;-49
2021/03/01 08:12:06;;;;;;;17.67;10.63;;;18.80;51.10;;;;;;5084430;28;20497;-49
2021/03/01 08:14:59;;;;;;;16.13;10.85;;;19.20;50.60;;;;;;5086803;28;20456;-49
2021/03/01 08:17:30;;;;;;;17.37;11.13;;;19.40;49.50;;;;;;5086460;28;20459;-48
2021/03/01 08:19:57;;;;;;;15.55;10.60;;;19.40;49.50;;;;;;5086192;28;20879;-49
2021/03/01 08:22:25;;;;;;;14.65;10.70;;;18.00;51.10;;;;;;5088440;28;20378;-49
2021/03/01 08:24:52;;;;;;;15.95;10.90;;;18.10;51.90;;;;;;5087628;28;20832;-50
2021/03/01 08:27:27;;;;;;;15.85;11.32;;;19.40;50.60;;;;;;5088798;28;20477;-50
2021/03/01 08:30:21;;;;;;;17.27;11.73;;;20.00;48.80;;;;;;5072219;28;20408;-49
2021/03/01 08:33:09;;;;;;;16.15;11.27;;;20.20;47.90;;;;;;5075702;28;20444;-49
2021/03/01 08:35:42;;;;;;;16.23;10.63;;;19.20;49.70;;;;;;5084573;28;20406;-52
2021/03/01 08:38:10;;;;;;;17.80;11.48;;;19.40;49.20;;;;;;5089519;28;20397;-55
2021/03/01 08:40:49;;;;;;;18.77;11.75;;;18.60;50.20;;;;;;5067231;28;20480;-49
2021/03/01 08:43:40;;;;;;;15.57;11.30;;;18.60;50.80;;;;;;5088219;28;20382;-49
2021/03/01 08:46:08;;;;;;;17.10;11.50;;;18.30;50.90;;;;;;5084920;28;20925;-54
2021/03/01 08:48:39;;;;;;;17.10;11.27;;;18.20;51.70;;;;;;5088509;28;20378;-49
2021/03/01 08:51:05;;;;;;;17.52;11.15;;;18.60;50.90;;;;;;5087912;28;20394;-53
2021/03/01 08:53:31;;;;;;;19.50;12.18;;;18.90;50.10;;;;;;5083457;28;20409;-50
2021/03/01 08:55:58;;;;;;;17.43;11.47;;;19.30;50.20;;;;;;5089106;28;20386;-49
2021/03/01 08:58:35;;;;;;;17.45;11.30;;;19.30;49.80;;;;;;5085406;28;20416;-49
2021/03/01 09:01:03;;;;;;;15.40;10.65;;;18.90;49.90;;;;;;5092059;28;20392;-49
2021/03/01 09:03:31;;;;;;;16.67;10.73;;;18.40;50.90;;;;;;5090078;28;20401;-50
2021/03/01 09:06:19;;;;;;;16.60;11.07;;;18.80;50.90;;;;;;5092783;28;20409;-49
2021/03/01 09:08:53;;;;;;;15.65;11.13;;;19.70;50.60;;;;;;5081483;28;20875;-49
2021/03/01 09:11:29;;;;;;;19.00;12.30;;;18.60;49.80;;;;;;5092078;28;20398;-49
2021/03/01 09:13:58;;;;;;;15.38;10.98;;;18.60;50.80;;;;;;5083897;28;20956;-49
2021/03/01 09:16:26;;;;;;;19.30;10.70;;;18.70;49.60;;;;;;5090125;28;20381;-49
2021/03/01 09:18:57;;;;;;;14.48;9.10;;;19.50;48.30;;;;;;5092321;28;20393;-49
2021/03/01 09:21:23;;;;;;;12.37;8.43;;;20.90;45.90;;;;;;5088589;28;20950;-50
2021/03/01 09:23:50;;;;;;;16.27;10.65;;;22.50;43.80;;;;;;5090590;28;20407;-49
2021/03/01 09:26:24;;;;;;;17.40;9.60;;;23.50;42.40;;;;;;5085806;28;20901;-49
2021/03/01 09:28:52;;;;;;;14.48;9.57;;;23.80;42.10;;;;;;5091048;28;20379;-50
2021/03/01 09:31:18;;;;;;;14.15;9.80;;;24.00;41.10;;;;;;5090464;28;20927;-49
2021/03/01 09:33:47;;;;;;;15.97;10.17;;;24.30;40.60;;;;;;5091790;28;20406;-50
2021/03/01 09:36:13;;;;;;;16.70;10.68;;;24.70;39.90;;;;;;5088627;28;20397;-49
2021/03/01 09:38:40;;;;;;;14.45;10.55;;;23.70;40.10;;;;;;5091861;28;20370;-52
2021/03/01 09:41:11;;;;;;;19.50;11.93;;;23.30;40.70;;;;;;5091557;28;20389;-52
2021/03/01 09:43:42;;;;;;;18.13;11.65;;;22.70;40.90;;;;;;5090446;28;20400;-49
2021/03/01 09:46:09;;;;;;;17.60;10.52;;;21.30;41.80;;;;;;5089634;28;20389;-54
2021/03/01 09:48:48;;;;;;;15.18;9.95;;;20.90;42.70;;;;;;5089824;28;20390;-50
2021/03/01 09:51:15;;;;;;;16.80;10.38;;;20.60;43.20;;;;;;5084932;28;20860;-49
2021/03/01 09:53:41;;;;;;;14.75;9.48;;;21.20;42.80;;;;;;5097572;28;20406;-49
2021/03/01 09:56:07;;;;;;;15.05;8.75;;;21.00;41.20;;;;;;5092848;28;20883;-54
2021/03/01 09:58:34;;;;;;;13.23;9.37;;;21.10;41.30;;;;;;5069765;28;20755;-49
2021/03/01 10:01:07;;;;;;;14.40;9.10;;;21.40;41.50;;;;;;5092566;28;20382;-49
2021/03/01 10:03:44;;;;;;;13.50;8.40;;;21.80;40.60;;;;;;5089465;28;20406;-49
2021/03/01 10:06:14;;;;;;;14.23;8.77;;;21.50;40.70;;;;;;5088689;28;20371;-53
2021/03/01 10:08:42;;;;;;;12.10;8.00;;;21.50;40.80;;;;;;5088582;28;20381;-49
2021/03/01 10:11:24;;;;;;;12.18;8.00;;;21.60;39.80;;;;;;5090155;28;20444;-54
2021/03/01 10:13:50;;;;;;;13.95;7.95;;;22.30;39.90;;;;;;5082797;28;20432;-49
2021/03/01 10:16:31;;;;;;;13.33;8.63;;;23.00;38.40;;;;;;5081286;28;20899;-49
2021/03/01 10:19:08;;;;;;;14.57;8.60;;;22.40;39.50;;;;;;5096411;28;20382;-49
2021/03/01 10:21:34;;;;;;;12.80;8.43;;;22.00;39.00;;;;;;5085080;28;20386;-49
2021/03/01 10:24:06;;;;;;;15.27;9.27;;;22.40;38.90;;;;;;5085090;28;20409;-50
2021/03/01 10:26:33;;;;;;;14.10;8.25;;;22.00;39.40;;;;;;5089808;28;20901;-49
2021/03/01 10:29:00;;;;;;;11.90;8.50;;;22.00;39.80;;;;;;5089342;28;20398;-50
2021/03/01 10:31:35;;;;;;;11.93;7.83;;;22.50;38.80;;;;;;5089491;28;20431;-50
2021/03/01 10:34:04;;;;;;;12.82;8.35;;;22.60;37.60;;;;;;5088425;28;20467;-50
2021/03/01 10:36:34;;;;;;;15.40;8.30;;;22.70;37.60;;;;;;5090487;28;20764;-49
2021/03/01 10:39:03;;;;;;;15.90;8.27;;;22.40;39.00;;;;;;5089430;28;20425;-50
2021/03/01 10:41:31;;;;;;;13.15;8.40;;;21.70;38.20;;;;;;5086620;28;20398;-49
2021/03/01 10:44:06;;;;;;;12.30;8.07;;;21.30;39.10;;;;;;5089112;28;20440;-49
2021/03/01 10:46:31;;;;;;;11.70;8.30;;;21.60;39.10;;;;;;5083963;28;21315;-50
2021/03/01 10:48:58;;;;;;;12.30;7.50;;;21.60;38.90;;;;;;5089582;28;20476;-52
2021/03/01 10:51:24;;;;;;;11.47;7.57;;;21.60;39.00;;;;;;5089130;28;20402;-49
2021/03/01 10:53:49;;;;;;;12.65;8.00;;;21.50;38.60;;;;;;5088864;28;20410;-50
2021/03/01 10:56:15;;;;;;;13.63;8.10;;;22.00;38.60;;;;;;5088617;28;20392;-49
2021/03/01 10:58:41;;;;;;;13.93;7.93;;;21.60;39.10;;;;;;5085409;28;20394;-50
2021/03/01 11:01:06;;;;;;;13.87;8.00;;;21.40;39.30;;;;;;5090304;28;20409;-49
2021/03/01 11:03:32;;;;;;;11.90;7.63;;;21.40;38.50;;;;;;5089895;28;20394;-51
2021/03/01 11:05:57;;;;;;;12.57;7.93;;;21.70;37.40;;;;;;5083043;28;20390;-50
2021/03/01 11:08:24;;;;;;;13.13;8.18;;;21.50;37.90;;;;;;5089171;28;21218;-49
2021/03/01 11:10:50;;;;;;;12.93;8.33;;;21.00;39.00;;;;;;5088287;28;20381;-49
2021/03/01 11:13:15;;;;;;;12.90;7.45;;;21.50;38.90;;;;;;5086465;28;20410;-49
2021/03/01 11:15:41;;;;;;;12.60;8.00;;;21.40;39.10;;;;;;5085326;28;20400;-49
2021/03/01 11:18:07;;;;;;;11.43;7.27;;;21.40;39.10;;;;;;5090140;28;20416;-49
2021/03/01 11:20:32;;;;;;;14.20;7.90;;;20.90;38.10;;;;;;5088534;28;20401;-50
2021/03/01 11:22:58;;;;;;;12.50;7.43;;;21.10;38.50;;;;;;5086053;28;20486;-52
2021/03/01 11:25:23;;;;;;;11.90;7.80;;;21.20;38.20;;;;;;5089420;28;20956;-49
2021/03/01 11:27:49;;;;;;;13.60;8.00;;;21.20;37.90;;;;;;5088804;28;20915;-49
2021/03/01 11:30:15;;;;;;;11.70;7.47;;;20.40;39.10;;;;;;5087678;28;20425;-53
2021/03/01 11:32:41;;;;;;;14.33;7.30;;;20.30;39.20;;;;;;5089109;28;20462;-54
2021/03/01 11:35:07;;;;;;;11.38;7.53;;;20.00;39.10;;;;;;5087339;28;20418;-54
2021/03/01 11:37:32;;;;;;;13.93;7.70;;;19.70;38.90;;;;;;5088909;28;20427;-55
2021/03/01 11:39:58;;;;;;;13.30;7.63;;;19.50;39.80;;;;;;5088682;28;20386;-53
2021/03/01 11:42:24;;;;;;;12.38;7.60;;;19.60;39.50;;;;;;5087978;28;20394;-54
2021/03/01 11:44:49;;;;;;;12.90;7.97;;;19.00;39.70;;;;;;5088490;28;20382;-52
2021/03/01 11:47:15;;;;;;;12.50;8.30;;;17.80;41.60;;;;;;5083500;28;20402;-53
2021/03/01 11:49:41;;;;;;;14.37;8.60;;;16.80;44.40;;;;;;5071300;28;20396;-53
2021/03/01 11:52:06;;;;;;;14.50;9.20;;;16.30;46.10;;;;;;5085775;28;20897;-53
2021/03/01 11:54:32;;;;;;;16.33;8.90;;;16.40;46.10;;;;;;5086285;28;20521;-52
2021/03/01 11:56:58;;;;;;;13.57;8.40;;;16.20;45.90;;;;;;5089482;28;20397;-51
2021/03/01 11:59:23;;;;;;;16.17;9.32;;;16.00;46.60;;;;;;5075180;28;20444;-52
2021/03/01 12:01:49;;;;;;;17.70;9.40;;;16.20;46.90;;;;;;5069869;28;20388;-48
2021/03/01 12:04:14;;;;;;;18.50;9.48;;;16.40;46.70;;;;;;5078605;28;20915;-48
2021/03/01 12:06:40;;;;;;;15.23;9.10;;;16.20;45.70;;;;;;5087526;28;20546;-49
2021/03/01 12:09:06;;;;;;;17.20;9.43;;;16.10;46.60;;;;;;5080572;28;20854;-50
2021/03/01 12:11:31;;;;;;;14.30;7.97;;;16.40;46.60;;;;;;5079376;28;20403;-49
2021/03/01 12:13:57;;;;;;;16.33;8.50;;;16.80;45.80;;;;;;5069821;28;20804;-48
2021/03/01 12:16:22;;;;;;;14.37;8.00;;;16.80;45.60;;;;;;5068854;28;20416;-48
2021/03/01 12:18:48;;;;;;;13.40;8.20;;;16.60;45.50;;;;;;5072621;28;20749;-48
2021/03/01 12:21:13;;;;;;;13.43;8.40;;;16.10;46.10;;;;;;5069201;28;20380;-49
2021/03/01 12:23:39;;;;;;;13.93;8.30;;;16.30;45.80;;;;;;5086641;28;20413;-49
2021/03/01 12:26:05;;;;;;;14.83;7.90;;;16.30;46.10;;;;;;5086871;28;20472;-49
2021/03/01 12:28:30;;;;;;;13.60;6.83;;;16.40;45.80;;;;;;5088526;28;20400;-49
2021/03/01 12:30:56;;;;;;;11.13;7.05;;;16.50;44.70;;;;;;5085209;28;20378;-48
2021/03/01 12:33:21;;;;;;;13.30;7.60;;;16.60;45.00;;;;;;5087326;28;20886;-49
2021/03/01 12:35:47;;;;;;;11.30;6.73;;;16.60;44.50;;;;;;5087005;28;20490;-48
2021/03/01 12:38:13;;;;;;;11.25;6.50;;;16.90;43.90;;;;;;5087558;28;20459;-51
2021/03/01 12:40:38;;;;;;;13.65;7.13;;;16.80;42.60;;;;;;5085569;28;20511;-51
2021/03/01 12:43:04;;;;;;;10.70;6.03;;;16.50;43.30;;;;;;5089571;28;20393;-48